Time;durP1;ratioP1;P1;durP2;ratioP2;P2;SDS_P1;SDS_P2;PMS_P1;PMS_P2;Temp;Humidity;BMP_temperature;BMP_pressure;BME280_temperature;BME280_humidity;BME280_pressure;Samples;Min_cycle;Max_cycle;Signal;HPM_P1;HPM_P2
2023/07/21 00:01:17;;;;;;;0.50;0.40;;;15.40;99.90;;;;;;5096453;28;20444;-82
2023/07/21 00:03:46;;;;;;;0.50;0.30;;;15.40;99.90;;;;;;5101279;28;20438;-83
2023/07/21 00:06:17;;;;;;;0.50;0.40;;;15.40;99.90;;;;;;5093751;28;20928;-83
2023/07/21 00:08:44;;;;;;;0.50;0.40;;;15.30;99.90;;;;;;5096036;28;20473;-81
2023/07/21 00:11:11;;;;;;;0.50;0.30;;;15.30;99.90;;;;;;5095255;28;20442;-82
2023/07/21 00:13:37;;;;;;;0.50;0.40;;;15.30;99.90;;;;;;5077607;28;20441;-80
2023/07/21 00:16:05;;;;;;;0.50;0.40;;;15.40;99.90;;;;;;5094970;28;20973;-82
2023/07/21 00:18:33;;;;;;;0.50;0.40;;;15.40;99.90;;;;;;5090079;28;20443;-82
2023/07/21 00:21:01;;;;;;;0.50;0.40;;;15.40;99.90;;;;;;5091219;28;20528;-82
2023/07/21 00:23:30;;;;;;;0.50;0.40;;;15.30;99.90;;;;;;5092828;28;20443;-81
2023/07/21 00:25:57;;;;;;;0.50;0.37;;;15.30;99.90;;;;;;5097996;28;20466;-83
2023/07/21 00:28:25;;;;;;;0.50;0.40;;;15.30;99.90;;;;;;5094611;28;20478;-83
2023/07/21 00:30:52;;;;;;;0.50;0.40;;;15.20;99.90;;;;;;5092658;28;20450;-82
2023/07/21 00:33:18;;;;;;;0.50;0.40;;;15.20;99.90;;;;;;5094001;28;20457;-81
2023/07/21 00:35:45;;;;;;;0.50;0.40;;;15.20;99.90;;;;;;5096619;28;20544;-83
2023/07/21 00:38:13;;;;;;;0.50;0.40;;;15.10;99.90;;;;;;5095872;28;20441;-81
2023/07/21 00:40:41;;;;;;;0.50;0.40;;;15.10;99.90;;;;;;5084379;28;20450;-83
2023/07/21 00:43:09;;;;;;;0.50;0.40;;;15.10;99.90;;;;;;5094101;28;20473;-82
2023/07/21 00:45:37;;;;;;;0.50;0.40;;;15.10;99.90;;;;;;5097537;28;20834;-82
2023/07/21 00:48:07;;;;;;;0.50;0.40;;;15.00;99.90;;;;;;5098002;28;20442;-83
2023/07/21 00:50:36;;;;;;;0.50;0.40;;;15.10;99.90;;;;;;5094619;28;23346;-82
2023/07/21 00:53:04;;;;;;;0.50;0.40;;;15.00;99.90;;;;;;5093883;28;20961;-83
2023/07/21 00:55:34;;;;;;;0.50;0.40;;;15.00;99.90;;;;;;5095615;28;20474;-81
2023/07/21 00:58:01;;;;;;;0.50;0.40;;;15.00;99.90;;;;;;5096636;28;20453;-83
2023/07/21 01:00:28;;;;;;;0.50;0.40;;;15.00;99.90;;;;;;5094557;28;20446;-83
2023/07/21 01:02:55;;;;;;;0.50;0.40;;;15.00;99.90;;;;;;5093549;28;20441;-83
2023/07/21 01:05:23;;;;;;;0.50;0.40;;;15.00;99.90;;;;;;5101475;28;20466;-82
2023/07/21 01:07:50;;;;;;;0.50;0.40;;;14.90;99.90;;;;;;5099139;28;20442;-83
2023/07/21 01:10:20;;;;;;;0.50;0.40;;;14.90;99.90;;;;;;5098735;28;20477;-83
2023/07/21 01:12:49;;;;;;;0.50;0.40;;;14.90;99.90;;;;;;5098265;28;20449;-83
2023/07/21 01:15:16;;;;;;;0.50;0.40;;;14.90;99.90;;;;;;5098459;28;20484;-83
2023/07/21 01:17:43;;;;;;;0.50;0.40;;;14.90;99.90;;;;;;5090265;28;20450;-83
2023/07/21 01:20:15;;;;;;;0.50;0.40;;;14.90;99.90;;;;;;5099240;28;20443;-83
2023/07/21 01:22:46;;;;;;;0.50;0.40;;;14.90;99.90;;;;;;5102200;28;20442;-83
2023/07/21 01:25:16;;;;;;;0.50;0.40;;;14.90;99.90;;;;;;5093827;28;20465;-82
2023/07/21 01:27:46;;;;;;;0.50;0.40;;;14.80;99.90;;;;;;5097101;28;20446;-83
2023/07/21 01:30:15;;;;;;;0.50;0.40;;;14.80;99.90;;;;;;5097427;28;20468;-82
2023/07/21 01:32:45;;;;;;;0.50;0.40;;;14.90;99.90;;;;;;5093807;28;20449;-81
2023/07/21 01:35:15;;;;;;;0.50;0.40;;;14.90;99.90;;;;;;5097004;28;20537;-81
2023/07/21 01:37:46;;;;;;;0.50;0.40;;;14.90;99.90;;;;;;5093174;28;20481;-81
2023/07/21 01:40:16;;;;;;;0.50;0.40;;;14.90;99.90;;;;;;5093301;28;20441;-81
2023/07/21 01:42:46;;;;;;;0.50;0.30;;;14.90;99.90;;;;;;5096039;28;20523;-82
2023/07/21 01:45:13;;;;;;;0.50;0.40;;;14.90;99.90;;;;;;5095465;28;20973;-81
2023/07/21 01:47:40;;;;;;;0.50;0.40;;;14.90;99.90;;;;;;5091887;28;20525;-81
2023/07/21 01:50:13;;;;;;;0.50;0.40;;;15.00;99.90;;;;;;5090165;28;20478;-81
2023/07/21 01:52:42;;;;;;;0.50;0.40;;;15.00;99.90;;;;;;5096568;28;20483;-83
2023/07/21 01:55:14;;;;;;;0.50;0.40;;;15.00;99.90;;;;;;5099518;28;20544;-83
2023/07/21 01:57:47;;;;;;;0.50;0.40;;;15.10;99.90;;;;;;5097122;28;20730;-84
2023/07/21 02:00:15;;;;;;;0.50;0.40;;;15.10;99.90;;;;;;5104142;28;20429;-84
2023/07/21 02:02:44;;;;;;;0.80;0.80;;;15.10;99.90;;;;;;5097806;28;20434;-83
2023/07/21 02:05:19;;;;;;;0.50;0.40;;;15.10;99.90;;;;;;5095997;28;20978;-83
2023/07/21 02:07:45;;;;;;;0.50;0.40;;;15.10;99.90;;;;;;5094490;28;20435;-81
2023/07/21 02:10:12;;;;;;;0.50;0.40;;;15.10;99.90;;;;;;5093982;28;20501;-83
2023/07/21 02:12:39;;;;;;;0.50;0.40;;;15.00;99.90;;;;;;5099647;28;20446;-83
2023/07/21 02:15:09;;;;;;;0.50;0.40;;;15.00;99.90;;;;;;5098671;28;20497;-83
2023/07/21 02:17:35;;;;;;;0.50;0.40;;;15.00;99.90;;;;;;5098913;28;20445;-83
2023/07/21 02:20:07;;;;;;;0.50;0.40;;;15.00;99.90;;;;;;5097036;28;21108;-82
2023/07/21 02:22:34;;;;;;;0.50;0.40;;;15.00;99.90;;;;;;5096982;28;20446;-81
2023/07/21 02:25:01;;;;;;;0.50;0.40;;;15.00;99.90;;;;;;5092179;28;20482;-82
2023/07/21 02:27:27;;;;;;;0.50;0.30;;;15.00;99.90;;;;;;5095789;28;20444;-83
2023/07/21 02:29:55;;;;;;;0.50;0.40;;;15.00;99.90;;;;;;5093775;28;20541;-81
2023/07/21 02:32:23;;;;;;;0.50;0.40;;;15.00;99.90;;;;;;5094550;28;20442;-83
2023/07/21 02:34:51;;;;;;;0.50;0.40;;;15.00;99.90;;;;;;5089012;28;20469;-83
2023/07/21 02:37:18;;;;;;;0.50;0.40;;;15.00;99.90;;;;;;5098176;28;20505;-83
2023/07/21 02:39:45;;;;;;;0.50;0.37;;;15.00;99.90;;;;;;5101075;28;20445;-84
2023/07/21 02:42:12;;;;;;;0.50;0.40;;;14.90;99.90;;;;;;5100894;28;20513;-84
2023/07/21 02:44:38;;;;;;;0.50;0.40;;;14.90;99.90;;;;;;5093017;28;20526;-83
2023/07/21 02:47:07;;;;;;;0.50;0.40;;;14.80;99.90;;;;;;5100924;28;20442;-83
2023/07/21 02:49:35;;;;;;;0.50;0.40;;;14.80;99.90;;;;;;5097897;28;20831;-83
2023/07/21 02:52:02;;;;;;;0.50;0.40;;;14.80;99.90;;;;;;5098663;28;20423;-80
2023/07/21 02:54:30;;;;;;;0.50;0.40;;;14.70;99.90;;;;;;5097787;28;20462;-82
2023/07/21 02:56:58;;;;;;;0.50;0.40;;;14.70;99.90;;;;;;5095562;28;20447;-81
2023/07/21 02:59:26;;;;;;;0.50;0.50;;;14.60;99.90;;;;;;5096093;28;20439;-82
2023/07/21 03:01:55;;;;;;;0.50;0.40;;;14.60;99.90;;;;;;5095778;28;20820;-81
2023/07/21 03:04:23;;;;;;;0.50;0.40;;;14.60;99.90;;;;;;5103487;28;20488;-82
2023/07/21 03:06:51;;;;;;;0.50;0.40;;;14.60;99.90;;;;;;5096038;28;20441;-82
2023/07/21 03:09:18;;;;;;;0.50;0.40;;;14.60;99.90;;;;;;5096857;28;20479;-82
2023/07/21 03:11:45;;;;;;;0.50;0.40;;;14.60;99.90;;;;;;5097851;28;20438;-82
2023/07/21 03:14:11;;;;;;;1.23;1.13;;;14.60;99.90;;;;;;5099033;28;20462;-81
2023/07/21 03:16:39;;;;;;;0.50;0.40;;;14.60;99.90;;;;;;5098189;28;20456;-82
2023/07/21 03:19:06;;;;;;;0.50;0.33;;;14.60;99.90;;;;;;5100649;28;20495;-83
2023/07/21 03:21:33;;;;;;;0.50;0.50;;;14.60;99.90;;;;;;5098635;28;20446;-86
2023/07/21 03:24:01;;;;;;;0.50;0.40;;;14.60;99.90;;;;;;5095438;28;20522;-82
2023/07/21 03:26:28;;;;;;;0.50;0.40;;;14.60;99.90;;;;;;5095116;28;20449;-83
2023/07/21 03:28:55;;;;;;;0.50;0.40;;;14.60;99.90;;;;;;5086957;28;20501;-82
2023/07/21 03:31:22;;;;;;;0.50;0.40;;;14.60;99.90;;;;;;5095500;28;20443;-83
2023/07/21 03:33:49;;;;;;;0.50;0.40;;;14.60;99.90;;;;;;5093473;28;20443;-80
2023/07/21 03:36:16;;;;;;;0.50;0.40;;;14.60;99.90;;;;;;5085169;28;20459;-80
2023/07/21 03:38:43;;;;;;;0.50;0.30;;;14.60;99.90;;;;;;5085927;28;20446;-81
2023/07/21 03:41:11;;;;;;;0.50;0.40;;;14.60;99.90;;;;;;5087778;28;20452;-81
2023/07/21 03:43:38;;;;;;;0.50;0.40;;;14.60;99.90;;;;;;5087687;28;20441;-80
2023/07/21 03:46:07;;;;;;;0.50;0.40;;;14.60;99.90;;;;;;5085465;28;20818;-81
2023/07/21 03:48:34;;;;;;;0.50;0.40;;;14.60;99.90;;;;;;5084431;28;20473;-80
2023/07/21 03:51:03;;;;;;;0.50;0.40;;;14.60;99.90;;;;;;5088834;28;20484;-80
2023/07/21 03:53:30;;;;;;;0.50;0.40;;;14.60;99.90;;;;;;5090101;28;20450;-82
2023/07/21 03:55:57;;;;;;;0.73;0.73;;;14.60;99.90;;;;;;5086178;28;20457;-82
2023/07/21 03:58:26;;;;;;;0.50;0.40;;;14.70;99.90;;;;;;5088509;28;20447;-81
2023/07/21 04:00:53;;;;;;;0.50;0.40;;;14.70;99.90;;;;;;5085829;28;20457;-80
2023/07/21 04:03:19;;;;;;;0.50;0.40;;;14.60;99.90;;;;;;5086720;28;20975;-82
2023/07/21 04:05:46;;;;;;;0.60;0.50;;;14.60;99.90;;;;;;5088064;28;20484;-80
2023/07/21 04:08:14;;;;;;;0.50;0.40;;;14.60;99.90;;;;;;5087304;28;20525;-80
2023/07/21 04:10:41;;;;;;;1.50;1.40;;;14.60;99.90;;;;;;5088223;28;20531;-80
2023/07/21 04:13:09;;;;;;;0.50;0.30;;;14.60;99.90;;;;;;5089192;28;20865;-82
2023/07/21 04:15:38;;;;;;;1.63;1.53;;;14.60;99.90;;;;;;5090846;28;20549;-81
2023/07/21 04:18:05;;;;;;;0.50;0.40;;;14.60;99.90;;;;;;5095102;28;20446;-83
2023/07/21 04:20:32;;;;;;;0.50;0.40;;;14.60;99.90;;;;;;5097052;28;20442;-81
2023/07/21 04:22:59;;;;;;;0.50;0.40;;;14.60;99.90;;;;;;5094155;28;20446;-83
2023/07/21 04:25:26;;;;;;;0.50;0.40;;;14.60;99.90;;;;;;5093797;28;20505;-82
2023/07/21 04:27:54;;;;;;;1.03;0.97;;;14.70;99.90;;;;;;5095413;28;20457;-83
2023/07/21 04:30:22;;;;;;;0.77;0.77;;;14.80;99.90;;;;;;5092623;28;20478;-82
2023/07/21 04:32:51;;;;;;;0.50;0.40;;;14.90;99.90;;;;;;5085915;28;20454;-82
2023/07/21 04:35:17;;;;;;;0.60;0.60;;;14.90;99.90;;;;;;5083076;28;20492;-81
2023/07/21 04:37:45;;;;;;;0.83;0.83;;;15.00;99.90;;;;;;5089328;28;20458;-81
2023/07/21 04:40:12;;;;;;;1.03;0.93;;;15.00;99.90;;;;;;5095020;28;20460;-81
2023/07/21 04:42:39;;;;;;;0.50;0.40;;;15.10;99.90;;;;;;5093788;28;20441;-78
2023/07/21 04:45:11;;;;;;;6.30;1.17;;;15.10;99.90;;;;;;5094151;28;20479;-81
2023/07/21 04:47:38;;;;;;;0.70;0.70;;;15.20;99.90;;;;;;5094094;28;20442;-83
2023/07/21 04:50:07;;;;;;;0.50;0.40;;;15.20;99.90;;;;;;5100279;28;20536;-83
2023/07/21 04:52:36;;;;;;;0.50;0.40;;;15.30;99.90;;;;;;5097786;28;20467;-82
2023/07/21 04:55:04;;;;;;;0.50;0.40;;;15.40;99.90;;;;;;5098578;28;20466;-83
2023/07/21 04:57:31;;;;;;;0.50;0.40;;;15.40;99.90;;;;;;5099387;28;20540;-81
2023/07/21 04:59:59;;;;;;;0.50;0.30;;;15.40;99.90;;;;;;5095403;28;20952;-82
2023/07/21 05:02:27;;;;;;;0.50;0.40;;;15.50;99.90;;;;;;5095042;28;20446;-82
2023/07/21 05:04:54;;;;;;;1.10;1.00;;;15.50;99.90;;;;;;5098957;28;20979;-81
2023/07/21 05:07:22;;;;;;;0.50;0.43;;;15.50;99.90;;;;;;5097832;28;20494;-82
2023/07/21 05:09:49;;;;;;;0.50;0.40;;;15.60;99.90;;;;;;5097658;28;20453;-79
2023/07/21 05:12:16;;;;;;;0.53;0.50;;;15.60;99.90;;;;;;5099977;28;20526;-82
2023/07/21 05:14:44;;;;;;;0.50;0.40;;;15.60;99.90;;;;;;5097525;28;20469;-79
2023/07/21 05:17:11;;;;;;;0.50;0.30;;;15.60;99.90;;;;;;5091253;28;20533;-82
2023/07/21 05:19:38;;;;;;;0.50;0.40;;;15.70;99.90;;;;;;5096777;28;20442;-81
2023/07/21 05:22:06;;;;;;;0.50;0.30;;;15.80;99.90;;;;;;5094673;28;20447;-82
2023/07/21 05:24:34;;;;;;;0.50;0.40;;;15.90;99.90;;;;;;5094874;28;20467;-81
2023/07/21 05:27:01;;;;;;;0.50;0.40;;;16.00;99.90;;;;;;5098364;28;21499;-82
2023/07/21 05:29:28;;;;;;;0.50;0.40;;;16.00;99.90;;;;;;5097927;28;20442;-83
2023/07/21 05:31:54;;;;;;;0.50;0.40;;;16.10;99.90;;;;;;5095965;28;20450;-80
2023/07/21 05:34:21;;;;;;;1.10;1.00;;;16.20;99.90;;;;;;5094409;28;20458;-80
2023/07/21 05:36:48;;;;;;;0.50;0.40;;;16.20;99.90;;;;;;5095650;28;20442;-82
2023/07/21 05:39:16;;;;;;;0.50;0.40;;;16.40;99.90;;;;;;5098287;28;20542;-81
2023/07/21 05:41:44;;;;;;;0.50;0.40;;;16.40;99.90;;;;;;5097958;28;20442;-82
2023/07/21 05:44:12;;;;;;;0.50;0.40;;;16.50;99.90;;;;;;5086224;28;20469;-83
2023/07/21 05:46:39;;;;;;;0.50;0.40;;;16.50;99.90;;;;;;5095319;28;20474;-83
2023/07/21 05:49:07;;;;;;;0.50;0.40;;;16.50;99.90;;;;;;5097504;28;20497;-82
2023/07/21 05:51:34;;;;;;;3.63;3.43;;;16.60;99.90;;;;;;5098015;28;20518;-82
2023/07/21 05:54:01;;;;;;;0.50;0.40;;;16.60;99.90;;;;;;5088440;28;20473;-81
2023/07/21 05:56:27;;;;;;;0.70;0.70;;;16.60;99.90;;;;;;5097703;28;20473;-82
2023/07/21 05:58:56;;;;;;;0.50;0.40;;;16.60;99.90;;;;;;5096336;28;20442;-82
2023/07/21 06:01:24;;;;;;;0.50;0.40;;;16.70;99.90;;;;;;5093325;28;20937;-82
2023/07/21 06:03:51;;;;;;;0.50;0.30;;;16.80;99.90;;;;;;5095524;28;20820;-82
2023/07/21 06:06:17;;;;;;;0.87;0.87;;;16.90;99.90;;;;;;5098090;28;20445;-81
2023/07/21 06:08:44;;;;;;;0.50;0.33;;;17.00;99.90;;;;;;5096228;28;20453;-81
2023/07/21 06:11:12;;;;;;;0.50;0.37;;;17.20;99.90;;;;;;5085038;28;20485;-80
2023/07/21 06:13:38;;;;;;;4.10;2.67;;;17.30;99.90;;;;;;5093321;28;20444;-80
2023/07/21 06:16:07;;;;;;;0.50;0.40;;;17.40;99.90;;;;;;5095655;28;20458;-85
2023/07/21 06:18:35;;;;;;;0.50;0.40;;;17.50;99.90;;;;;;5097194;28;20445;-81
2023/07/21 06:21:03;;;;;;;0.50;0.30;;;17.60;99.90;;;;;;5095728;28;20471;-82
2023/07/21 06:23:30;;;;;;;0.50;0.40;;;17.80;99.90;;;;;;5097135;28;20438;-82
2023/07/21 06:25:57;;;;;;;0.50;0.40;;;17.70;99.90;;;;;;5096166;28;20492;-81
2023/07/21 06:28:23;;;;;;;0.50;0.30;;;17.70;99.90;;;;;;5088919;28;20438;-80
2023/07/21 06:30:50;;;;;;;0.50;0.37;;;17.70;99.90;;;;;;5103996;28;20480;-81
2023/07/21 06:33:18;;;;;;;0.73;0.73;;;17.70;99.90;;;;;;5093718;28;20446;-80
2023/07/21 06:35:45;;;;;;;0.50;0.30;;;17.70;99.90;;;;;;5093097;28;20560;-78
2023/07/21 06:38:12;;;;;;;0.50;0.40;;;17.70;99.90;;;;;;5095964;28;20505;-82
2023/07/21 06:40:39;;;;;;;0.50;0.30;;;17.80;99.90;;;;;;5097753;28;20453;-81
2023/07/21 06:43:05;;;;;;;0.50;0.40;;;17.80;99.90;;;;;;5086968;28;21006;-81
2023/07/21 06:45:33;;;;;;;0.50;0.30;;;17.90;99.90;;;;;;5122138;22;20458;-77
2023/07/21 06:48:00;;;;;;;0.50;0.40;;;17.90;99.90;;;;;;5054936;28;20498;-80
2023/07/21 06:50:28;;;;;;;0.50;0.40;;;17.90;99.90;;;;;;5063018;28;20476;-80
2023/07/21 06:52:55;;;;;;;0.50;0.40;;;18.00;99.90;;;;;;5063126;28;20446;-79
2023/07/21 06:55:22;;;;;;;0.50;0.40;;;18.10;99.90;;;;;;5063995;28;20634;-79
2023/07/21 06:57:49;;;;;;;0.50;0.40;;;18.50;99.90;;;;;;5064603;28;20876;-80
2023/07/21 07:00:16;;;;;;;0.50;0.30;;;18.80;99.90;;;;;;5063387;28;20440;-80
2023/07/21 07:02:49;;;;;;;0.93;0.93;;;19.00;99.90;;;;;;5064157;28;20490;-80
2023/07/21 07:05:16;;;;;;;0.50;0.40;;;19.30;99.90;;;;;;5063497;28;20441;-80
2023/07/21 07:07:44;;;;;;;2.20;1.93;;;19.30;99.90;;;;;;5063939;28;20840;-80
2023/07/21 07:10:11;;;;;;;0.50;0.30;;;19.20;99.90;;;;;;5063429;28;20454;-81
2023/07/21 07:12:39;;;;;;;0.50;0.30;;;19.30;99.90;;;;;;5062785;28;20446;-76
2023/07/21 07:15:09;;;;;;;0.50;0.30;;;19.70;99.90;;;;;;5064082;28;20440;-80
2023/07/21 07:17:36;;;;;;;0.50;0.40;;;20.10;99.90;;;;;;5064615;28;20459;-80
2023/07/21 07:20:04;;;;;;;0.50;0.30;;;20.50;99.90;;;;;;5063877;28;20499;-80
2023/07/21 07:22:30;;;;;;;1.57;1.23;;;20.70;99.90;;;;;;5064035;28;20535;-79
2023/07/21 07:24:59;;;;;;;0.50;0.40;;;21.10;99.90;;;;;;5063954;28;20443;-80
2023/07/21 07:27:25;;;;;;;0.50;0.30;;;22.00;99.90;;;;;;5064179;28;20469;-82
2023/07/21 07:29:52;;;;;;;0.90;0.90;;;22.90;99.90;;;;;;5063744;28;20806;-79
2023/07/21 07:32:19;;;;;;;3.00;2.73;;;23.00;99.90;;;;;;5063992;28;20525;-79
2023/07/21 07:34:46;;;;;;;0.50;0.40;;;22.80;99.90;;;;;;5064128;28;20508;-80
2023/07/21 07:37:13;;;;;;;0.73;0.67;;;22.90;99.90;;;;;;5063564;28;20470;-80
2023/07/21 07:39:39;;;;;;;0.50;0.37;;;23.30;99.90;;;;;;5063744;28;21186;-81
2023/07/21 07:42:08;;;;;;;0.50;0.40;;;23.60;99.90;;;;;;5063917;28;20433;-81
2023/07/21 07:44:34;;;;;;;0.70;0.63;;;24.10;99.90;;;;;;5064590;28;20455;-81
2023/07/21 07:47:01;;;;;;;0.50;0.40;;;24.50;99.90;;;;;;5063778;28;20480;-80
2023/07/21 07:49:29;;;;;;;0.50;0.30;;;24.80;99.90;;;;;;5064100;28;20437;-81
2023/07/21 07:51:55;;;;;;;0.50;0.30;;;25.00;99.90;;;;;;5063929;28;20482;-79
2023/07/21 07:54:22;;;;;;;0.50;0.40;;;24.90;99.90;;;;;;5062748;28;20451;-80
2023/07/21 07:56:51;;;;;;;0.50;0.30;;;25.20;99.90;;;;;;5063831;28;20549;-80
2023/07/21 07:59:20;;;;;;;0.50;0.30;;;25.40;99.90;;;;;;5063087;28;20440;-81
2023/07/21 08:01:46;;;;;;;0.70;0.53;;;25.90;99.90;;;;;;5064022;28;20441;-81
2023/07/21 08:04:13;;;;;;;0.50;0.40;;;26.00;95.10;;;;;;5063193;28;20458;-81
2023/07/21 08:06:40;;;;;;;0.50;0.30;;;25.50;99.90;;;;;;5062905;28;20464;-80
2023/07/21 08:09:09;;;;;;;0.50;0.40;;;25.00;99.10;;;;;;5062624;28;20449;-79
2023/07/21 08:11:37;;;;;;;0.50;0.30;;;24.70;99.90;;;;;;5063051;28;20494;-77
2023/07/21 08:14:05;;;;;;;0.50;0.30;;;24.60;99.90;;;;;;5062162;28;20538;-81
2023/07/21 08:16:35;;;;;;;0.50;0.30;;;24.40;99.60;;;;;;5062233;28;21253;-78
2023/07/21 08:19:02;;;;;;;0.50;0.40;;;24.20;99.90;;;;;;5061135;28;20513;-80
2023/07/21 08:21:29;;;;;;;0.50;0.30;;;24.40;99.90;;;;;;5060672;28;20807;-80
2023/07/21 08:23:56;;;;;;;0.50;0.30;;;24.70;99.90;;;;;;5060960;28;20450;-80
2023/07/21 08:26:23;;;;;;;0.50;0.50;;;24.90;99.40;;;;;;5053627;28;20482;-79
2023/07/21 08:28:52;;;;;;;0.50;0.30;;;25.30;99.90;;;;;;5061781;28;21119;-79
2023/07/21 08:31:19;;;;;;;3.60;1.63;;;25.60;98.90;;;;;;5061838;28;20486;-79
2023/07/21 08:33:47;;;;;;;0.50;0.30;;;26.10;94.60;;;;;;5061003;28;20444;-79
2023/07/21 08:36:14;;;;;;;0.50;0.30;;;26.00;96.80;;;;;;5062093;28;20459;-80
2023/07/21 08:38:41;;;;;;;0.90;0.90;;;26.00;95.20;;;;;;5062496;28;20838;-80
2023/07/21 08:41:09;;;;;;;0.50;0.30;;;26.20;95.50;;;;;;5061236;28;20435;-80
2023/07/21 08:43:36;;;;;;;0.50;0.30;;;26.70;93.40;;;;;;5061441;28;20436;-80
2023/07/21 08:46:08;;;;;;;0.60;0.50;;;26.90;94.10;;;;;;5061409;28;20485;-80
2023/07/21 08:48:35;;;;;;;0.50;0.30;;;27.60;88.30;;;;;;5061891;28;20468;-79
2023/07/21 08:51:04;;;;;;;0.73;0.60;;;27.40;87.10;;;;;;5061703;28;20494;-79
2023/07/21 08:53:32;;;;;;;0.50;0.30;;;27.70;91.20;;;;;;5061376;28;20928;-80
2023/07/21 08:56:01;;;;;;;0.50;0.40;;;27.70;87.60;;;;;;5061548;28;20529;-77
2023/07/21 08:58:28;;;;;;;0.50;0.30;;;27.00;82.10;;;;;;5053659;28;21121;-80
2023/07/21 09:00:56;;;;;;;1.20;1.13;;;26.60;83.10;;;;;;5061231;28;20449;-79
2023/07/21 09:03:24;;;;;;;0.50;0.30;;;26.50;82.60;;;;;;5059702;28;20502;-79
2023/07/21 09:05:52;;;;;;;0.50;0.40;;;26.50;82.20;;;;;;5061713;28;20466;-78
2023/07/21 09:08:21;;;;;;;0.50;0.37;;;26.20;84.40;;;;;;5060970;28;20530;-79
2023/07/21 09:10:48;;;;;;;1.03;0.83;;;25.90;85.10;;;;;;5061994;28;20441;-79
2023/07/21 09:13:16;;;;;;;0.50;0.30;;;25.70;85.40;;;;;;5060773;28;20443;-80
2023/07/21 09:15:51;;;;;;;0.73;0.73;;;25.80;87.00;;;;;;5061207;28;20451;-80
2023/07/21 09:18:18;;;;;;;0.50;0.30;;;26.00;81.00;;;;;;5062038;28;20441;-80
2023/07/21 09:20:47;;;;;;;0.50;0.40;;;26.50;84.70;;;;;;5061040;28;20446;-81
2023/07/21 09:23:18;;;;;;;0.50;0.40;;;26.80;78.00;;;;;;5060044;28;20448;-76
2023/07/21 09:25:54;;;;;;;0.50;0.30;;;26.60;78.00;;;;;;5059291;28;20432;-77
2023/07/21 09:28:21;;;;;;;0.50;0.37;;;26.00;78.60;;;;;;5059067;28;20447;-78
2023/07/21 09:30:52;;;;;;;0.50;0.30;;;26.00;81.60;;;;;;5058862;28;20455;-79
2023/07/21 09:33:24;;;;;;;0.50;0.30;;;26.10;80.00;;;;;;5064400;28;20439;-81
2023/07/21 09:35:52;;;;;;;0.50;0.30;;;26.80;78.30;;;;;;5064030;28;20459;-79
2023/07/21 09:38:21;;;;;;;0.70;0.70;;;26.90;76.40;;;;;;5058760;28;20824;-80
2023/07/21 09:40:48;;;;;;;0.50;0.30;;;26.80;80.10;;;;;;5058168;28;20440;-78
2023/07/21 09:43:18;;;;;;;0.50;0.30;;;26.40;79.50;;;;;;5058446;28;20451;-77
2023/07/21 09:45:45;;;;;;;0.50;0.30;;;26.60;85.90;;;;;;5059634;28;20467;-77
2023/07/21 09:48:13;;;;;;;0.50;0.30;;;27.60;84.50;;;;;;5059892;28;20471;-79
2023/07/21 09:50:41;;;;;;;0.50;0.37;;;28.40;79.50;;;;;;5060299;28;20459;-80
2023/07/21 09:53:10;;;;;;;0.50;0.50;;;28.20;73.40;;;;;;5058395;28;20479;-79
2023/07/21 09:55:41;;;;;;;0.50;0.40;;;27.70;74.10;;;;;;5059166;28;20443;-79
2023/07/21 09:58:10;;;;;;;0.50;0.33;;;27.80;74.00;;;;;;5059596;28;20449;-79
2023/07/21 10:00:40;;;;;;;0.50;0.30;;;28.60;73.90;;;;;;5060171;28;20444;-78
2023/07/21 10:03:08;;;;;;;0.60;0.40;;;29.60;68.00;;;;;;5059574;28;20462;-80
2023/07/21 10:05:37;;;;;;;0.50;0.30;;;29.00;68.70;;;;;;5063162;28;20449;-79
2023/07/21 10:08:05;;;;;;;0.50;0.30;;;29.10;70.00;;;;;;5060073;28;20468;-79
2023/07/21 10:10:32;;;;;;;0.50;0.30;;;29.40;68.40;;;;;;5059132;28;20440;-79
2023/07/21 10:13:06;;;;;;;0.50;0.40;;;30.00;67.10;;;;;;5059907;28;20513;-79
2023/07/21 10:15:33;;;;;;;0.50;0.40;;;29.90;66.60;;;;;;5058096;28;20444;-83
2023/07/21 10:18:04;;;;;;;0.50;0.30;;;29.90;68.10;;;;;;5060291;28;20924;-80
2023/07/21 10:20:43;;;;;;;0.50;0.30;;;30.20;69.40;;;;;;5059660;28;20855;-80
2023/07/21 10:23:12;;;;;;;0.50;0.37;;;30.70;67.30;;;;;;5059093;28;20436;-78
2023/07/21 10:26:03;;;;;;;0.70;0.70;;;30.60;66.10;;;;;;5059064;28;20437;-79
2023/07/21 10:28:38;;;;;;;0.50;0.30;;;29.80;63.90;;;;;;5039067;28;20443;-79
2023/07/21 10:31:32;;;;;;;0.50;0.30;;;28.60;65.80;;;;;;5058298;28;20444;-79
2023/07/21 10:34:04;;;;;;;0.50;0.30;;;27.60;69.80;;;;;;5052185;28;20442;-80
2023/07/21 10:36:40;;;;;;;0.50;0.30;;;27.00;71.90;;;;;;5056727;28;20972;-76
2023/07/21 10:39:10;;;;;;;0.60;0.60;;;26.50;72.50;;;;;;5056738;28;20441;-77
2023/07/21 10:41:37;;;;;;;0.50;0.40;;;26.20;73.40;;;;;;5048521;28;20487;-75
2023/07/21 10:44:06;;;;;;;0.50;0.30;;;26.10;73.40;;;;;;5048313;28;20446;-79
2023/07/21 10:46:36;;;;;;;0.50;0.30;;;25.90;75.40;;;;;;5056732;28;20904;-79
2023/07/21 10:49:04;;;;;;;0.50;0.50;;;25.70;73.80;;;;;;5057308;28;20440;-79
2023/07/21 10:51:31;;;;;;;0.50;0.40;;;25.60;77.00;;;;;;5057019;28;20571;-79
2023/07/21 10:53:58;;;;;;;0.50;0.40;;;25.60;76.60;;;;;;5056307;28;20451;-78
2023/07/21 10:56:25;;;;;;;0.50;0.40;;;26.10;79.90;;;;;;5063303;28;20601;-82
2023/07/21 10:58:53;;;;;;;0.50;0.30;;;26.80;76.70;;;;;;5057964;28;20447;-79
2023/07/21 11:01:20;;;;;;;0.50;0.40;;;26.90;73.00;;;;;;5057887;28;20475;-80
2023/07/21 11:03:48;;;;;;;0.50;0.30;;;27.50;73.00;;;;;;5057430;28;20447;-79
2023/07/21 11:06:16;;;;;;;0.50;0.30;;;27.80;74.10;;;;;;5058115;28;20464;-78
2023/07/21 11:08:43;;;;;;;0.50;0.30;;;27.40;75.70;;;;;;5057743;28;20448;-78
2023/07/21 11:11:10;;;;;;;0.50;0.30;;;26.90;75.20;;;;;;5058498;28;20442;-80
2023/07/21 11:13:39;;;;;;;0.50;0.30;;;26.70;75.00;;;;;;5056765;28;20443;-79
2023/07/21 11:16:06;;;;;;;0.50;0.30;;;26.40;71.00;;;;;;5056662;28;20464;-79
2023/07/21 11:18:33;;;;;;;0.50;0.40;;;25.90;72.10;;;;;;5056262;28;20837;-78
2023/07/21 11:21:00;;;;;;;0.50;0.30;;;25.80;73.40;;;;;;5055772;28;20448;-79
2023/07/21 11:23:28;;;;;;;0.50;0.40;;;25.40;77.10;;;;;;5060558;28;20471;-80
2023/07/21 11:26:04;;;;;;;0.50;0.30;;;25.20;73.20;;;;;;5061991;28;20831;-79
2023/07/21 11:28:31;;;;;;;0.50;0.30;;;25.20;73.30;;;;;;5061657;28;20443;-80
2023/07/21 11:31:00;;;;;;;0.53;0.40;;;25.20;72.20;;;;;;5061436;28;20456;-81
2023/07/21 11:33:39;;;;;;;0.50;0.40;;;25.10;72.20;;;;;;5063357;28;20487;-80
2023/07/21 11:36:13;;;;;;;0.50;0.30;;;25.40;80.90;;;;;;5061792;28;20463;-80
2023/07/21 11:38:41;;;;;;;0.50;0.40;;;25.80;72.90;;;;;;5054070;28;20452;-80
2023/07/21 11:41:08;;;;;;;0.50;0.30;;;26.10;75.00;;;;;;5062491;28;20446;-79
2023/07/21 11:43:47;;;;;;;0.50;0.30;;;26.20;77.30;;;;;;5061937;28;20507;-80
2023/07/21 11:46:23;;;;;;;0.50;0.30;;;26.70;77.60;;;;;;5061890;28;20500;-79
2023/07/21 11:48:50;;;;;;;0.50;0.30;;;27.90;75.20;;;;;;5062357;28;20442;-80
2023/07/21 11:51:16;;;;;;;0.50;0.30;;;28.40;69.40;;;;;;5062128;28;20436;-78
2023/07/21 11:53:50;;;;;;;0.93;0.93;;;28.20;66.50;;;;;;5061448;28;20471;-78
2023/07/21 11:56:17;;;;;;;0.50;0.30;;;27.60;66.20;;;;;;5062242;28;20551;-77
2023/07/21 11:58:44;;;;;;;0.50;0.30;;;26.80;67.00;;;;;;5062202;28;20445;-80
2023/07/21 12:01:11;;;;;;;0.50;0.40;;;26.20;73.00;;;;;;5062136;28;20441;-79
2023/07/21 12:03:40;;;;;;;0.50;0.30;;;25.80;74.40;;;;;;5061973;28;20441;-79
2023/07/21 12:06:09;;;;;;;0.60;0.43;;;25.40;75.00;;;;;;5061619;28;20468;-80
2023/07/21 12:08:36;;;;;;;0.50;0.30;;;25.10;78.90;;;;;;5061860;28;20963;-76
2023/07/21 12:11:04;;;;;;;0.50;0.40;;;24.80;75.40;;;;;;5061837;28;20451;-80
2023/07/21 12:13:31;;;;;;;0.50;0.30;;;24.70;76.90;;;;;;5060558;28;20474;-79
2023/07/21 12:15:58;;;;;;;0.50;0.30;;;24.40;78.30;;;;;;5061261;28;20472;-79
2023/07/21 12:18:24;;;;;;;0.70;0.70;;;24.40;77.70;;;;;;5062049;28;20436;-79
2023/07/21 12:20:51;;;;;;;0.50;0.30;;;24.60;79.50;;;;;;5061940;28;20520;-80
2023/07/21 12:23:18;;;;;;;0.50;0.30;;;25.70;81.80;;;;;;5061666;28;20443;-80
2023/07/21 12:25:45;;;;;;;0.50;0.30;;;27.30;75.20;;;;;;5053950;28;20941;-80
2023/07/21 12:28:13;;;;;;;0.50;0.30;;;28.20;70.50;;;;;;5062843;28;20439;-80
2023/07/21 12:30:40;;;;;;;0.50;0.30;;;28.60;72.90;;;;;;5063064;28;20444;-81
2023/07/21 12:33:06;;;;;;;0.50;0.30;;;28.60;68.00;;;;;;5061955;28;20490;-80
2023/07/21 12:35:33;;;;;;;0.50;0.30;;;28.20;66.70;;;;;;5061690;28;20539;-79
2023/07/21 12:38:01;;;;;;;0.50;0.30;;;27.60;68.70;;;;;;5062376;28;20467;-80
2023/07/21 12:40:28;;;;;;;0.50;0.30;;;27.50;69.10;;;;;;5061912;28;20444;-80
2023/07/21 12:42:55;;;;;;;0.50;0.40;;;27.30;70.70;;;;;;5061958;28;20805;-80
2023/07/21 12:45:23;;;;;;;0.50;0.30;;;27.30;70.20;;;;;;5061462;28;20443;-77
2023/07/21 12:47:50;;;;;;;0.50;0.30;;;27.20;71.70;;;;;;5083984;22;20495;-82
2023/07/21 12:50:17;;;;;;;0.50;0.30;;;26.70;69.20;;;;;;5083198;28;20916;-85
2023/07/21 12:52:44;;;;;;;0.50;0.30;;;26.20;70.50;;;;;;5092663;28;20525;-85